Terminal Aerodrome Forecast
Issued by NWS

Home | Current Version | Previous Version | Text Only | Print | Product List | Glossary On
Versions: 1 2 3 4 5 6 7 8 9 10 11 12 13 14 15 16 17 18
367
FTUS45 KRIW 200524
TAFJAC
TAF
KJAC 200524Z 2006/2106 17006KT P6SM SCT030 BKN040
      TEMPO 2006/2010 3SM -SN BKN030
     FM201200 VRB05KT 3SM BR SCT004 OVC025
     FM201700 VRB06KT 5SM BR FEW005 OVC030
     FM201800 18006KT P6SM BKN030
      AMD LTD TO CLD VIS AND WIND=

USA.gov is the U.S. government's official web portal to all federal, state and local government web resources and services.